Time;durP1;ratioP1;P1;durP2;ratioP2;P2;SDS_P1;SDS_P2;PMS_P1;PMS_P2;Temp;Humidity;BMP_temperature;BMP_pressure;BME280_temperature;BME280_humidity;BME280_pressure;Samples;Min_cycle;Max_cycle;Signal;HPM_P1;HPM_P2
2023/12/01 00:00:57;;;;;;;34.88;16.48;;;;;;;-146.25;100.00;52733.19;2079376;28;41937;-68
2023/12/01 00:01:59;;;;;;;29.48;15.35;;;;;;;-146.25;100.00;52692.63;2079072;28;45278;-68
2023/12/01 00:03:03;;;;;;;32.25;16.88;;;;;;;-146.25;100.00;52652.06;2079057;28;41016;-68
2023/12/01 00:04:05;;;;;;;35.25;16.90;;;;;;;-146.25;100.00;52652.06;2078376;28;42669;-68
2023/12/01 00:05:07;;;;;;;32.45;16.63;;;;;;;-146.25;100.00;52654.09;2079268;28;46520;-68
2023/12/01 00:06:09;;;;;;;31.42;16.10;;;;;;;-146.25;100.00;52694.66;2079810;28;20169;-69
2023/12/01 00:07:11;;;;;;;32.75;17.42;;;;;;;-146.25;100.00;52656.13;2081374;28;44418;-69
2023/12/01 00:08:12;;;;;;;31.85;16.60;;;;;;;-146.25;100.00;52684.50;2079555;28;41827;-69
2023/12/01 00:09:17;;;;;;;33.88;17.70;;;;;;;-146.25;100.00;52648.00;2079158;28;38319;-69
2023/12/01 00:10:19;;;;;;;33.90;16.63;;;;;;;-146.25;100.00;52645.97;2079280;28;43391;-68
2023/12/01 00:11:20;;;;;;;35.35;16.38;;;;;;;-146.25;100.00;52633.81;2080255;28;20890;-69
2023/12/01 00:12:22;;;;;;;33.50;17.08;;;;;;;-146.25;100.00;52660.19;2078931;28;46005;-68
2023/12/01 00:13:26;;;;;;;32.38;15.93;;;;;;;-146.25;100.00;52716.97;2079142;28;40931;-68
2023/12/01 00:14:28;;;;;;;31.75;16.48;;;;;;;-146.25;100.00;52664.22;2079041;28;40983;-68
2023/12/01 00:15:29;;;;;;;32.22;16.30;;;;;;;-146.25;100.00;52692.63;2079024;28;45044;-69
2023/12/01 00:16:31;;;;;;;32.25;16.20;;;;;;;-146.25;100.00;52607.47;2080238;28;20842;-68
2023/12/01 00:17:33;;;;;;;34.13;16.40;;;;;;;-146.25;100.00;52631.78;2078661;28;44637;-68
2023/12/01 00:18:35;;;;;;;32.45;16.23;;;;;;;-146.25;100.00;52631.78;2078863;28;41136;-68
2023/12/01 00:19:39;;;;;;;35.75;16.40;;;;;;;-146.25;100.00;52676.41;2078731;28;43066;-68
2023/12/01 00:20:43;;;;;;;32.10;16.00;;;;;;;-146.25;100.00;52664.22;2078462;28;47158;-68
2023/12/01 00:21:47;;;;;;;31.25;15.25;;;;;;;-146.25;100.00;52674.38;2079800;28;21044;-68
2023/12/01 00:22:51;;;;;;;31.33;14.60;;;;;;;-146.25;100.00;52660.19;2079098;28;43566;-69
2023/12/01 00:23:53;;;;;;;30.20;14.80;;;;;;;-146.25;100.00;52656.13;2079294;28;41726;-68
2023/12/01 00:24:54;;;;;;;30.50;14.68;;;;;;;-146.25;100.00;52670.31;2078676;28;40975;-69
2023/12/01 00:25:57;;;;;;;32.67;15.13;;;;;;;-146.25;100.00;52652.06;2070496;28;44261;-67
2023/12/01 00:26:58;;;;;;;30.35;15.95;;;;;;;-146.25;100.00;52680.47;2078623;28;42127;-67
2023/12/01 00:28:00;;;;;;;30.02;15.13;;;;;;;-146.25;100.00;52712.91;2079085;28;45767;-67
2023/12/01 00:29:04;;;;;;;27.35;14.13;;;;;;;-146.25;100.00;52668.28;2078510;28;20796;-69
2023/12/01 00:30:07;;;;;;;32.53;15.70;;;;;;;-146.25;100.00;52639.91;2070874;28;31809;-69
2023/12/01 00:31:08;;;;;;;33.20;15.95;;;;;;;-146.25;100.00;52648.00;2079046;28;21206;-69
2023/12/01 00:32:11;;;;;;;30.02;14.35;;;;;;;-146.25;100.00;52668.28;2071173;28;20097;-69
2023/12/01 00:33:17;;;;;;;31.33;15.40;;;;;;;-146.25;100.00;52692.63;2071193;28;28194;-67
2023/12/01 00:34:19;;;;;;;30.42;16.05;;;;;;;-146.25;100.00;52641.94;2079497;28;39518;-69
2023/12/01 00:35:21;;;;;;;29.60;15.43;;;;;;;-146.25;100.00;52680.47;2078831;28;35320;-69
2023/12/01 00:36:22;;;;;;;31.23;14.48;;;;;;;-146.25;100.00;52692.63;2078765;28;36928;-69
2023/12/01 00:37:24;;;;;;;29.98;15.07;;;;;;;-146.25;100.00;52668.28;2079929;28;20038;-69
2023/12/01 00:38:26;;;;;;;30.88;15.65;;;;;;;-146.25;100.00;52692.63;2079778;28;30272;-66
2023/12/01 00:39:28;;;;;;;30.08;15.52;;;;;;;-146.25;100.00;52639.91;2078314;28;39416;-66
2023/12/01 00:40:30;;;;;;;28.50;15.00;;;;;;;-146.25;100.00;52645.97;2070886;28;31340;-66
2023/12/01 00:41:34;;;;;;;31.13;15.57;;;;;;;-146.25;100.00;52637.88;2078827;28;36550;-68
2023/12/01 00:42:36;;;;;;;28.70;15.65;;;;;;;-146.25;100.00;52692.63;2079347;28;20042;-66
2023/12/01 00:43:38;;;;;;;31.80;16.05;;;;;;;-146.25;100.00;52694.66;2078711;28;36338;-69
2023/12/01 00:44:40;;;;;;;29.35;15.32;;;;;;;-146.25;100.00;52706.81;2078541;28;39259;-67
2023/12/01 00:45:41;;;;;;;27.48;13.65;;;;;;;-146.25;100.00;52656.13;2078914;28;32002;-67
2023/12/01 00:46:43;;;;;;;29.20;14.73;;;;;;;-146.25;100.00;52692.63;2087804;28;20152;-69
2023/12/01 00:47:47;;;;;;;29.30;15.30;;;;;;;-146.25;100.00;52680.47;2071050;28;20051;-69
2023/12/01 00:48:49;;;;;;;27.55;14.65;;;;;;;-146.25;100.00;52676.41;2071130;28;32172;-69
2023/12/01 00:49:51;;;;;;;33.38;15.63;;;;;;;-146.25;100.00;52660.19;2079072;28;39448;-67
2023/12/01 00:50:53;;;;;;;29.67;15.52;;;;;;;-146.25;100.00;52680.47;2078985;28;38557;-69
2023/12/01 00:51:54;;;;;;;28.98;14.32;;;;;;;-146.25;100.00;52674.38;2078851;28;32074;-69
2023/12/01 00:52:59;;;;;;;30.70;16.10;;;;;;;-146.25;100.00;52684.50;2078620;28;38754;-68
2023/12/01 00:54:00;;;;;;;28.75;15.50;;;;;;;-146.25;100.00;52648.00;2078962;28;35448;-68
2023/12/01 00:55:02;;;;;;;30.60;15.52;;;;;;;-146.25;100.00;52635.84;2094827;23;30158;-65
2023/12/01 00:56:07;;;;;;;31.77;15.85;;;;;;;-146.25;100.00;52668.28;2088112;28;41051;-65
2023/12/01 00:57:09;;;;;;;31.10;15.85;;;;;;;-146.25;100.00;52704.78;2079244;28;42024;-65
2023/12/01 00:58:10;;;;;;;26.85;14.68;;;;;;;-146.25;100.00;52672.34;2087187;28;20156;-65
2023/12/01 00:59:12;;;;;;;28.35;15.50;;;;;;;-146.25;100.00;52698.72;2094872;28;36816;-66
2023/12/01 01:00:17;;;;;;;30.33;15.50;;;;;;;-146.25;100.00;52676.41;2095606;28;20913;-64
2023/12/01 01:01:19;;;;;;;29.73;15.30;;;;;;;-146.25;100.00;52648.00;2096296;28;20204;-65
2023/12/01 01:02:20;;;;;;;29.40;15.20;;;;;;;-146.25;100.00;52676.41;2094953;28;33231;-65
2023/12/01 01:03:22;;;;;;;25.83;14.52;;;;;;;-146.25;100.00;52690.59;2090949;28;20181;-65
2023/12/01 01:04:24;;;;;;;28.77;15.15;;;;;;;-146.25;100.00;52635.84;2087082;28;28923;-65
2023/12/01 01:05:26;;;;;;;27.58;14.23;;;;;;;-146.25;100.00;52637.88;2088097;28;42356;-65
2023/12/01 01:06:30;;;;;;;27.92;14.32;;;;;;;-146.25;100.00;52678.44;2089206;28;30273;-65
2023/12/01 01:07:34;;;;;;;25.25;13.60;;;;;;;-146.25;100.00;52668.28;2088310;28;32456;-65
2023/12/01 01:08:35;;;;;;;28.02;13.93;;;;;;;-146.25;100.00;52676.41;2087995;28;40124;-65
2023/12/01 01:09:37;;;;;;;31.30;15.70;;;;;;;-146.25;100.00;52672.34;2088676;28;38468;-66
2023/12/01 01:10:39;;;;;;;27.23;14.80;;;;;;;-146.25;100.00;52639.91;2080468;28;20626;-66
2023/12/01 01:11:40;;;;;;;25.52;13.45;;;;;;;-146.25;100.00;52625.72;2088157;28;41999;-65
2023/12/01 01:12:42;;;;;;;26.88;14.23;;;;;;;-146.25;100.00;52670.31;2088425;28;29988;-65
2023/12/01 01:13:44;;;;;;;25.52;13.80;;;;;;;-146.25;100.00;52648.00;2088815;28;28509;-65
2023/12/01 01:14:45;;;;;;;27.50;14.55;;;;;;;-146.25;100.00;52678.44;2088661;28;20041;-65
2023/12/01 01:15:49;;;;;;;29.85;14.43;;;;;;;-146.25;100.00;52692.63;2079902;28;34886;-65
2023/12/01 01:16:50;;;;;;;30.63;15.48;;;;;;;-146.25;100.00;52658.16;2087762;28;38025;-65
2023/12/01 01:17:52;;;;;;;27.58;15.25;;;;;;;-146.25;100.00;52633.81;2089605;28;20159;-64
2023/12/01 01:18:54;;;;;;;28.48;14.60;;;;;;;-146.25;100.00;52694.66;2096394;28;35169;-65
2023/12/01 01:19:58;;;;;;;28.55;15.10;;;;;;;-146.25;100.00;52641.94;2096400;28;31966;-65
2023/12/01 01:21:03;;;;;;;30.27;15.35;;;;;;;-146.25;100.00;52698.72;2088441;28;20037;-65
2023/12/01 01:22:05;;;;;;;28.33;14.75;;;;;;;-146.25;100.00;52656.13;2088147;28;38307;-65
2023/12/01 01:23:07;;;;;;;30.67;16.15;;;;;;;-146.25;100.00;52654.09;2096623;28;36106;-66
2023/12/01 01:24:09;;;;;;;31.30;16.75;;;;;;;-146.25;100.00;52639.91;2096403;28;34615;-64
2023/12/01 01:25:10;;;;;;;30.30;15.50;;;;;;;-146.25;100.00;52656.13;2088390;28;36941;-64
2023/12/01 01:26:15;;;;;;;31.33;16.42;;;;;;;-146.25;100.00;52686.53;2090305;28;39100;-65
2023/12/01 01:27:16;;;;;;;31.15;15.75;;;;;;;-146.25;100.00;52658.16;2088795;28;37852;-64
2023/12/01 01:28:18;;;;;;;29.98;15.60;;;;;;;-146.25;100.00;52668.28;2088698;28;37673;-65
2023/12/01 01:29:20;;;;;;;28.42;15.48;;;;;;;-146.25;100.00;52668.28;2088601;28;20100;-64
2023/12/01 01:30:22;;;;;;;27.80;14.60;;;;;;;-146.25;100.00;52674.38;2088828;28;20069;-66
2023/12/01 01:31:26;;;;;;;30.80;15.43;;;;;;;-146.25;100.00;52660.19;2089121;28;42669;-65
2023/12/01 01:32:28;;;;;;;29.02;15.15;;;;;;;-146.25;100.00;52662.22;2088455;28;35253;-64
2023/12/01 01:33:30;;;;;;;25.48;14.88;;;;;;;-146.25;100.00;52688.56;2088664;28;36054;-64
2023/12/01 01:34:32;;;;;;;31.65;14.02;;;;;;;-146.25;100.00;52682.47;2087815;28;39078;-65
2023/12/01 01:35:34;;;;;;;28.77;14.55;;;;;;;-146.25;100.00;52680.47;2079712;28;37240;-65
2023/12/01 01:36:36;;;;;;;28.02;15.25;;;;;;;-146.25;100.00;52670.31;2088307;28;20947;-65
2023/12/01 01:37:39;;;;;;;25.80;14.60;;;;;;;-146.25;100.00;52684.50;2088781;28;35052;-65
2023/12/01 01:38:41;;;;;;;28.30;14.73;;;;;;;-146.25;100.00;52674.38;2087987;28;35021;-65
2023/12/01 01:39:43;;;;;;;26.40;14.52;;;;;;;-146.25;100.00;52664.22;2088233;28;34945;-64
2023/12/01 01:40:45;;;;;;;26.23;14.10;;;;;;;-146.25;100.00;52668.28;2088583;28;40697;-65
2023/12/01 01:41:47;;;;;;;27.63;15.27;;;;;;;-146.25;100.00;52704.78;2088039;28;36808;-65
2023/12/01 01:42:49;;;;;;;28.23;15.15;;;;;;;-146.25;100.00;52674.38;2088510;28;20095;-64
2023/12/01 01:43:51;;;;;;;27.70;15.20;;;;;;;-146.25;100.00;52648.00;2095673;28;33844;-65
2023/12/01 01:44:53;;;;;;;28.08;14.88;;;;;;;-146.25;100.00;52674.38;2088534;28;34514;-65
2023/12/01 01:46:14;;;;;;;26.45;14.75;;;;;;;-146.25;100.00;52654.09;2088374;28;41579;-67
2023/12/01 01:47:16;;;;;;;25.35;14.23;;;;;;;-146.25;100.00;52643.97;2087337;28;34990;-65
2023/12/01 01:48:18;;;;;;;27.85;15.15;;;;;;;-146.25;100.00;52696.69;2079761;28;37432;-65
2023/12/01 01:49:26;;;;;;;29.48;15.10;;;;;;;-146.25;100.00;52692.63;2087792;28;39456;-64
2023/12/01 01:50:28;;;;;;;24.17;13.10;;;;;;;-146.25;100.00;52672.34;2088758;28;20068;-65
2023/12/01 01:51:30;;;;;;;25.05;14.18;;;;;;;-146.25;100.00;52668.28;2087887;28;40938;-65
2023/12/01 01:52:35;;;;;;;29.67;15.40;;;;;;;-146.25;100.00;52708.84;2088083;28;36466;-64
2023/12/01 01:53:41;;;;;;;30.48;15.57;;;;;;;-146.25;100.00;52700.72;2088989;28;21285;-65
2023/12/01 01:54:43;;;;;;;27.65;15.13;;;;;;;-146.25;100.00;52639.91;2086251;28;36973;-65
2023/12/01 01:55:45;;;;;;;30.38;16.15;;;;;;;-146.25;100.00;52645.97;2079797;28;38261;-65
2023/12/01 01:56:47;;;;;;;28.00;14.90;;;;;;;-146.25;100.00;52672.34;2080218;28;20123;-65
2023/12/01 01:57:49;;;;;;;29.02;15.35;;;;;;;-146.25;100.00;52668.28;2071612;28;29612;-64
2023/12/01 01:58:51;;;;;;;29.48;15.98;;;;;;;-146.25;100.00;52627.75;2079455;28;22739;-65
2023/12/01 01:59:53;;;;;;;26.20;15.95;;;;;;;-146.25;100.00;52684.50;2080145;28;20127;-65
2023/12/01 02:00:55;;;;;;;28.73;15.32;;;;;;;-146.25;100.00;52668.28;2080296;28;20034;-65
2023/12/01 02:01:57;;;;;;;28.65;14.73;;;;;;;-146.25;100.00;52652.06;2080083;28;21201;-65
2023/12/01 02:02:59;;;;;;;29.88;16.02;;;;;;;-146.25;100.00;52648.00;2073510;28;20046;-65
2023/12/01 02:04:02;;;;;;;28.98;15.63;;;;;;;-146.25;100.00;52660.19;2080375;28;20831;-65
2023/12/01 02:05:12;;;;;;;31.13;16.27;;;;;;;-146.25;100.00;52668.28;2087447;28;37614;-65
2023/12/01 02:06:14;;;;;;;22.70;12.85;;;;;;;-146.25;100.00;52680.47;2088701;28;20053;-65
2023/12/01 02:07:26;;;;;;;28.23;15.23;;;;;;;-146.25;100.00;52678.44;2079604;28;34677;-65
2023/12/01 02:08:30;;;;;;;28.48;15.23;;;;;;;-146.25;100.00;52702.75;2087989;28;39985;-64
2023/12/01 02:09:33;;;;;;;30.38;15.75;;;;;;;-146.25;100.00;52684.50;2088332;28;39819;-65
2023/12/01 02:10:36;;;;;;;27.15;14.77;;;;;;;-146.25;100.00;52668.28;2087873;28;39310;-65
2023/12/01 02:11:40;;;;;;;25.25;14.50;;;;;;;-146.25;100.00;52678.44;2080674;28;20049;-65
2023/12/01 02:12:44;;;;;;;27.40;14.15;;;;;;;-146.25;100.00;52668.28;2080163;28;31473;-65
2023/12/01 02:13:47;;;;;;;29.33;15.20;;;;;;;-146.25;100.00;52660.19;2080140;28;26225;-65
2023/12/01 02:14:49;;;;;;;26.10;14.88;;;;;;;-146.25;100.00;52650.03;2072245;28;35325;-66
2023/12/01 02:15:52;;;;;;;28.13;14.73;;;;;;;-146.25;100.00;52648.00;2078795;28;35580;-65
2023/12/01 02:16:53;;;;;;;25.83;14.68;;;;;;;-146.25;100.00;52694.66;2096345;28;20928;-64
2023/12/01 02:17:55;;;;;;;25.30;14.57;;;;;;;-146.25;100.00;52676.41;2088125;28;20219;-65
2023/12/01 02:18:58;;;;;;;26.52;14.45;;;;;;;-146.25;100.00;52690.59;2087566;28;44316;-65
2023/12/01 02:19:59;;;;;;;25.92;15.32;;;;;;;-146.25;100.00;52666.25;2087905;28;30829;-65
2023/12/01 02:21:02;;;;;;;28.67;15.27;;;;;;;-146.25;100.00;52639.91;2080160;28;20046;-64
2023/12/01 02:22:05;;;;;;;25.73;14.63;;;;;;;-146.25;100.00;52698.72;2080321;28;20093;-65
2023/12/01 02:23:07;;;;;;;27.05;15.57;;;;;;;-146.25;100.00;52682.47;2087850;28;34969;-65
2023/12/01 02:24:09;;;;;;;25.17;14.32;;;;;;;-146.25;100.00;52684.50;2088759;28;20042;-65
2023/12/01 02:25:11;;;;;;;27.48;14.82;;;;;;;-146.25;100.00;52656.13;2088054;28;36910;-65
2023/12/01 02:26:13;;;;;;;24.98;13.65;;;;;;;-146.25;100.00;52650.03;2088171;28;27714;-67
2023/12/01 02:27:14;;;;;;;26.52;14.68;;;;;;;-146.25;100.00;52684.50;2088241;28;20167;-65
2023/12/01 02:28:17;;;;;;;25.33;14.00;;;;;;;-146.25;100.00;52704.78;2087648;28;38431;-65
2023/12/01 02:29:20;;;;;;;26.17;14.55;;;;;;;-146.25;100.00;52690.59;2087474;28;36665;-65
2023/12/01 02:30:22;;;;;;;26.67;14.85;;;;;;;-146.25;100.00;52688.56;2088535;28;20038;-65
2023/12/01 02:31:24;;;;;;;24.65;13.60;;;;;;;-146.25;100.00;52641.94;2088269;28;35436;-65
2023/12/01 02:32:26;;;;;;;26.58;14.70;;;;;;;-146.25;100.00;52678.44;2087306;28;38655;-64
2023/12/01 02:33:28;;;;;;;24.35;13.80;;;;;;;-146.25;100.00;52662.22;2088536;28;20143;-65
2023/12/01 02:34:29;;;;;;;23.70;13.98;;;;;;;-146.25;100.00;52662.22;2087445;28;44172;-65
2023/12/01 02:35:31;;;;;;;23.33;13.70;;;;;;;-146.25;100.00;52686.53;2087413;28;38637;-65
2023/12/01 02:36:33;;;;;;;25.20;14.68;;;;;;;-146.25;100.00;52643.97;2079167;28;33532;-64
2023/12/01 02:37:34;;;;;;;27.35;14.85;;;;;;;-146.25;100.00;52686.53;2079378;28;37427;-66
2023/12/01 02:38:36;;;;;;;23.80;13.57;;;;;;;-146.25;100.00;52684.50;2088425;28;36003;-65
2023/12/01 02:39:38;;;;;;;25.45;13.70;;;;;;;-146.25;100.00;52682.47;2088354;28;36348;-65
2023/12/01 02:40:49;;;;;;;24.83;15.00;;;;;;;-146.25;100.00;52688.56;2088426;28;30345;-65
2023/12/01 02:41:53;;;;;;;27.00;13.88;;;;;;;-146.25;100.00;52684.50;2088476;28;20871;-65
2023/12/01 02:42:55;;;;;;;22.50;13.63;;;;;;;-146.25;100.00;52684.50;2080800;28;32696;-65
2023/12/01 02:43:56;;;;;;;25.67;12.82;;;;;;;-146.25;100.00;52690.59;2079197;28;32547;-65
2023/12/01 02:44:58;;;;;;;22.58;12.95;;;;;;;-146.25;100.00;52682.47;2087505;28;37428;-65
2023/12/01 02:46:01;;;;;;;24.70;13.45;;;;;;;-146.25;100.00;52645.97;2088121;28;38059;-64
2023/12/01 02:47:03;;;;;;;21.88;12.90;;;;;;;-146.25;100.00;52676.41;2088790;28;20034;-65
2023/12/01 02:48:08;;;;;;;21.92;12.88;;;;;;;-146.25;100.00;52686.53;2088294;28;20886;-65
2023/12/01 02:49:12;;;;;;;23.35;13.27;;;;;;;-146.25;100.00;52637.88;2079596;28;31399;-65
2023/12/01 02:50:19;;;;;;;23.90;13.85;;;;;;;-146.25;100.00;52680.47;2088296;28;20163;-65
2023/12/01 02:51:20;;;;;;;23.30;13.25;;;;;;;-146.25;100.00;52674.38;2087537;28;39975;-65
2023/12/01 02:52:22;;;;;;;24.65;13.70;;;;;;;-146.25;100.00;52682.47;2088035;28;28617;-65
2023/12/01 02:53:24;;;;;;;23.75;13.13;;;;;;;-146.25;100.00;52660.19;2087866;28;20041;-65
2023/12/01 02:54:26;;;;;;;25.38;14.50;;;;;;;-146.25;100.00;52652.06;2087354;28;39523;-65
2023/12/01 02:55:28;;;;;;;24.77;14.43;;;;;;;-146.25;100.00;52650.03;2079751;28;33778;-64
2023/12/01 02:56:29;;;;;;;24.85;13.43;;;;;;;-146.25;100.00;52700.72;2080616;28;20041;-65
2023/12/01 02:57:31;;;;;;;25.50;13.95;;;;;;;-146.25;100.00;52684.50;2079750;28;38947;-65
2023/12/01 02:58:33;;;;;;;22.88;13.73;;;;;;;-146.25;100.00;52662.22;2079837;28;35920;-66
2023/12/01 02:59:37;;;;;;;24.08;12.93;;;;;;;-146.25;100.00;52660.19;2080519;28;21912;-64
2023/12/01 03:00:42;;;;;;;25.40;14.25;;;;;;;-146.25;100.00;52670.31;2080887;28;20038;-65
2023/12/01 03:01:44;;;;;;;25.88;14.05;;;;;;;-146.25;100.00;52672.34;2080477;28;28479;-64
2023/12/01 03:02:52;;;;;;;24.27;13.40;;;;;;;-146.25;100.00;52650.03;2080053;28;38259;-65
2023/12/01 03:03:54;;;;;;;24.92;13.95;;;;;;;-146.25;100.00;52727.09;2079185;28;35042;-65
2023/12/01 03:04:55;;;;;;;24.40;13.98;;;;;;;-146.25;100.00;52664.22;2072045;28;34847;-65
2023/12/01 03:05:57;;;;;;;27.73;14.35;;;;;;;-146.25;100.00;52706.81;2079112;28;38886;-65
2023/12/01 03:06:59;;;;;;;26.50;14.25;;;;;;;-146.25;100.00;52676.41;2080267;28;33454;-65
2023/12/01 03:08:01;;;;;;;26.95;14.82;;;;;;;-146.25;100.00;52656.13;2087805;28;20041;-65
2023/12/01 03:09:03;;;;;;;26.23;15.07;;;;;;;-146.25;100.00;52676.41;2079381;28;37680;-64
2023/12/01 03:10:10;;;;;;;25.55;14.73;;;;;;;-146.25;100.00;52672.34;2079277;28;38642;-65
2023/12/01 03:11:14;;;;;;;25.63;14.75;;;;;;;-146.25;100.00;52700.72;2086623;28;37130;-65
2023/12/01 03:12:16;;;;;;;24.95;14.55;;;;;;;-146.25;100.00;52690.59;2078887;28;39668;-65
2023/12/01 03:13:17;;;;;;;27.75;15.43;;;;;;;-146.25;100.00;52674.38;2071835;28;20160;-65
2023/12/01 03:14:19;;;;;;;30.35;15.25;;;;;;;-146.25;100.00;52686.53;2071318;28;20046;-65
2023/12/01 03:15:21;;;;;;;24.25;14.30;;;;;;;-146.25;100.00;52692.63;2078938;28;32172;-65
2023/12/01 03:16:23;;;;;;;25.80;14.65;;;;;;;-146.25;100.00;52692.63;2079838;28;20148;-65
2023/12/01 03:17:25;;;;;;;26.48;15.15;;;;;;;-146.25;100.00;52635.84;2078695;28;39226;-65
2023/12/01 03:18:27;;;;;;;29.35;15.27;;;;;;;-146.25;100.00;52688.56;2079732;28;35540;-65
2023/12/01 03:19:29;;;;;;;26.08;14.90;;;;;;;-146.25;100.00;52668.28;2079584;28;37681;-65
2023/12/01 03:20:31;;;;;;;26.13;15.50;;;;;;;-146.25;100.00;52650.03;2078969;28;34040;-65
2023/12/01 03:21:33;;;;;;;27.85;14.77;;;;;;;-146.25;100.00;52672.34;2079380;28;35361;-65
2023/12/01 03:22:34;;;;;;;25.73;14.30;;;;;;;-146.25;100.00;52660.19;2087434;28;33442;-65
2023/12/01 03:23:36;;;;;;;26.38;16.05;;;;;;;-146.25;100.00;52656.13;2087433;28;36434;-64
2023/12/01 03:24:42;;;;;;;26.55;15.25;;;;;;;-146.25;100.00;52652.06;2079692;28;40995;-65
2023/12/01 03:25:43;;;;;;;27.05;16.23;;;;;;;-146.25;100.00;52694.66;2078950;28;37612;-65
2023/12/01 03:26:45;;;;;;;26.13;15.55;;;;;;;-146.25;100.00;52672.34;2080245;28;20045;-65
2023/12/01 03:27:48;;;;;;;25.60;14.80;;;;;;;-146.25;100.00;52674.38;2079676;28;35648;-65
2023/12/01 03:28:52;;;;;;;26.30;15.30;;;;;;;-146.25;100.00;52680.47;2078966;28;32652;-65
2023/12/01 03:29:54;;;;;;;26.15;15.27;;;;;;;-146.25;100.00;52686.53;2072070;28;20051;-65
2023/12/01 03:30:55;;;;;;;28.25;15.52;;;;;;;-146.25;100.00;52676.41;2078674;28;39487;-65
2023/12/01 03:31:57;;;;;;;27.02;15.50;;;;;;;-146.25;100.00;52619.63;2080094;28;39101;-65
2023/12/01 03:32:59;;;;;;;26.33;15.70;;;;;;;-146.25;100.00;52700.72;2080651;28;37543;-65
2023/12/01 03:34:04;;;;;;;27.88;15.68;;;;;;;-146.25;100.00;52676.41;2088393;28;20045;-65
2023/12/01 03:35:06;;;;;;;26.25;15.55;;;;;;;-146.25;100.00;52700.72;2118284;23;20068;-82
2023/12/01 03:36:10;;;;;;;23.42;14.15;;;;;;;-146.25;100.00;52684.50;2080275;28;34368;-82
2023/12/01 03:37:12;;;;;;;24.15;14.35;;;;;;;-146.25;100.00;52706.81;2079035;28;35388;-82
2023/12/01 03:38:14;;;;;;;28.10;15.93;;;;;;;-146.25;100.00;52660.19;2079404;28;32993;-82
2023/12/01 03:39:16;;;;;;;23.60;14.10;;;;;;;-146.25;100.00;52686.53;2079226;28;32593;-81
2023/12/01 03:40:18;;;;;;;28.20;15.52;;;;;;;-146.25;100.00;52621.66;2079907;28;20794;-81
2023/12/01 03:41:20;;;;;;;26.42;15.52;;;;;;;-146.25;100.00;52672.34;2070855;28;35112;-82
2023/12/01 03:42:21;;;;;;;27.15;15.68;;;;;;;-146.25;100.00;52668.28;2071096;28;34922;-81
2023/12/01 03:43:23;;;;;;;28.00;15.63;;;;;;;-146.25;100.00;52721.00;2079183;28;34096;-81
2023/12/01 03:44:25;;;;;;;25.35;15.15;;;;;;;-146.25;100.00;52696.69;2078688;28;37703;-81
2023/12/01 03:45:27;;;;;;;29.45;15.50;;;;;;;-146.25;100.00;52694.66;2080604;28;20925;-82
2023/12/01 03:46:29;;;;;;;25.83;15.35;;;;;;;-146.25;100.00;52666.25;2079565;28;20160;-82
2023/12/01 03:47:31;;;;;;;26.27;15.50;;;;;;;-146.25;100.00;52692.63;2079538;28;27964;-82
2023/12/01 03:48:36;;;;;;;28.25;16.48;;;;;;;-146.25;100.00;52690.59;2071052;28;36289;-82
2023/12/01 03:49:38;;;;;;;26.50;16.00;;;;;;;-146.25;100.00;52694.66;2079521;28;41767;-82
2023/12/01 03:50:42;;;;;;;29.02;15.98;;;;;;;-146.25;100.00;52706.81;2079850;28;20164;-80
2023/12/01 03:51:44;;;;;;;30.48;16.15;;;;;;;-146.25;100.00;52698.72;2079081;28;36203;-82
2023/12/01 03:52:48;;;;;;;28.80;16.30;;;;;;;-146.25;100.00;52698.72;2079062;28;27850;-82
2023/12/01 03:53:50;;;;;;;27.85;14.95;;;;;;;-146.25;100.00;52664.22;2063085;28;37628;-82
2023/12/01 03:54:52;;;;;;;28.63;16.38;;;;;;;-146.25;100.00;52686.53;2059827;28;39604;-82
2023/12/01 03:55:53;;;;;;;28.75;15.70;;;;;;;-146.25;100.00;52672.34;2070810;28;32591;-82
2023/12/01 03:56:55;;;;;;;29.30;17.08;;;;;;;-146.25;100.00;52688.56;2070977;28;28419;-82
2023/12/01 03:57:57;;;;;;;28.73;16.30;;;;;;;-146.25;100.00;52706.81;2070559;28;35184;-82
2023/12/01 03:58:59;;;;;;;28.77;16.52;;;;;;;-146.25;100.00;52692.63;2071342;28;33308;-83
2023/12/01 04:00:00;;;;;;;29.45;15.90;;;;;;;-146.25;100.00;52723.03;2073420;28;36414;-82
2023/12/01 04:01:12;;;;;;;29.95;17.00;;;;;;;-146.25;100.00;52704.78;2078522;28;20084;-83
2023/12/01 04:02:14;;;;;;;28.95;16.88;;;;;;;-146.25;100.00;52656.13;2078583;28;28961;-82
2023/12/01 04:03:17;;;;;;;29.35;17.15;;;;;;;-146.25;100.00;52668.28;2067156;28;20043;-83
2023/12/01 04:04:19;;;;;;;33.10;17.45;;;;;;;-146.25;100.00;52684.50;2070659;28;37949;-81
2023/12/01 04:05:22;;;;;;;33.83;17.98;;;;;;;-146.25;100.00;52696.69;2072100;28;29094;-83
2023/12/01 04:06:27;;;;;;;32.97;18.25;;;;;;;-146.25;100.00;52666.25;2073127;28;20954;-83
2023/12/01 04:07:28;;;;;;;32.75;17.98;;;;;;;-146.25;100.00;52650.03;2079359;28;33103;-83
2023/12/01 04:08:31;;;;;;;32.83;18.85;;;;;;;-146.25;100.00;52723.03;2079217;28;20933;-83
2023/12/01 04:09:34;;;;;;;33.45;18.42;;;;;;;-146.25;100.00;52662.22;2078936;28;39786;-83
2023/12/01 04:10:40;;;;;;;33.72;17.92;;;;;;;-146.25;100.00;52662.22;2069887;28;44029;-83
2023/12/01 04:11:45;;;;;;;33.80;18.73;;;;;;;-146.25;100.00;52725.06;2071476;28;20248;-83
2023/12/01 04:12:47;;;;;;;31.80;18.27;;;;;;;-146.25;100.00;52696.69;2062901;28;35626;-82
2023/12/01 04:13:50;;;;;;;36.22;18.60;;;;;;;-146.25;100.00;52680.47;2062984;28;20049;-83
2023/12/01 04:14:52;;;;;;;35.80;20.08;;;;;;;-146.25;100.00;52680.47;2062317;28;37582;-81
2023/12/01 04:15:53;;;;;;;38.83;20.40;;;;;;;-146.25;100.00;52684.50;2062950;28;38560;-83
2023/12/01 04:16:56;;;;;;;36.53;19.70;;;;;;;-146.25;100.00;52696.69;2070492;28;39734;-82
2023/12/01 04:17:58;;;;;;;35.95;19.17;;;;;;;-146.25;100.00;52678.44;2079072;28;34476;-81
2023/12/01 04:19:00;;;;;;;36.72;19.70;;;;;;;-146.25;100.00;52694.66;2070920;28;20281;-83
2023/12/01 04:20:20;;;;;;;35.55;18.90;;;;;;;-146.25;100.00;52692.63;2071010;28;29756;-82
2023/12/01 04:21:22;;;;;;;37.53;19.75;;;;;;;-146.25;100.00;52692.63;2070418;28;28485;-81
2023/12/01 04:22:24;;;;;;;36.05;20.17;;;;;;;-146.25;100.00;52668.28;2070752;28;35287;-82
2023/12/01 04:23:26;;;;;;;36.75;19.40;;;;;;;-146.25;100.00;52686.53;2071097;28;39365;-83
2023/12/01 04:24:28;;;;;;;38.30;19.70;;;;;;;-146.25;100.00;52676.41;2072019;28;20112;-81
2023/12/01 04:25:32;;;;;;;36.60;18.80;;;;;;;-146.25;100.00;52704.78;2079215;28;20047;-83
2023/12/01 04:26:34;;;;;;;42.08;21.45;;;;;;;-146.25;100.00;52698.72;2070232;28;43563;-83
2023/12/01 04:27:36;;;;;;;39.05;20.10;;;;;;;-146.25;100.00;52678.44;2070575;28;40248;-83
2023/12/01 04:28:40;;;;;;;42.65;21.33;;;;;;;-146.25;100.00;52714.94;2078698;28;40835;-83
2023/12/01 04:29:41;;;;;;;35.75;19.38;;;;;;;-146.25;100.00;52676.41;2069818;28;43231;-83
2023/12/01 04:30:43;;;;;;;41.38;21.30;;;;;;;-146.25;100.00;52704.78;2070917;28;39183;-83
2023/12/01 04:31:45;;;;;;;40.17;19.65;;;;;;;-146.25;100.00;52706.81;2078591;28;41628;-84
2023/12/01 04:32:55;;;;;;;39.92;20.17;;;;;;;-146.25;100.00;52674.38;2077284;28;42855;-83
2023/12/01 04:33:58;;;;;;;40.72;21.02;;;;;;;-146.25;100.00;52698.72;2070232;28;43289;-83
2023/12/01 04:34:59;;;;;;;40.25;20.52;;;;;;;-146.25;100.00;52668.28;2071109;28;20050;-83
2023/12/01 04:36:06;;;;;;;44.13;23.48;;;;;;;-146.25;100.00;52712.91;2078948;28;21998;-83
2023/12/01 04:37:09;;;;;;;39.22;21.40;;;;;;;-146.25;100.00;52680.47;2078784;28;40616;-83
2023/12/01 04:38:11;;;;;;;41.55;21.92;;;;;;;-146.25;100.00;52631.78;2077424;28;42728;-83
2023/12/01 04:39:14;;;;;;;39.67;20.45;;;;;;;-146.25;100.00;52700.72;2078249;28;43192;-83